sensor_id;sensor_type;location;lat;lon;timestamp;P1;durP1;ratioP1;P2;durP2;ratioP2
52956;SDS011;38819;42.692;23.342;2023-05-10T00:00:32;4.80;;;4.35;;
52956;SDS011;38819;42.692;23.342;2023-05-10T00:02:58;4.88;;;4.03;;
52956;SDS011;38819;42.692;23.342;2023-05-10T00:05:23;4.72;;;4.32;;
52956;SDS011;38819;42.692;23.342;2023-05-10T00:07:48;5.68;;;5.18;;
52956;SDS011;38819;42.692;23.342;2023-05-10T00:10:14;7.20;;;4.57;;
52956;SDS011;38819;42.692;23.342;2023-05-10T00:12:39;5.20;;;4.80;;
52956;SDS011;38819;42.692;23.342;2023-05-10T00:15:05;6.22;;;5.72;;
52956;SDS011;38819;42.692;23.342;2023-05-10T00:17:31;7.45;;;6.57;;
52956;SDS011;38819;42.692;23.342;2023-05-10T00:19:56;6.90;;;6.25;;
52956;SDS011;38819;42.692;23.342;2023-05-10T00:22:22;6.90;;;6.20;;
52956;SDS011;38819;42.692;23.342;2023-05-10T00:24:48;7.97;;;7.18;;
52956;SDS011;38819;42.692;23.342;2023-05-10T00:27:13;7.97;;;6.55;;
52956;SDS011;38819;42.692;23.342;2023-05-10T00:29:39;7.18;;;6.57;;
52956;SDS011;38819;42.692;23.342;2023-05-10T00:32:04;7.25;;;6.55;;
52956;SDS011;38819;42.692;23.342;2023-05-10T00:34:30;6.75;;;6.20;;
52956;SDS011;38819;42.692;23.342;2023-05-10T00:36:55;7.97;;;6.30;;
52956;SDS011;38819;42.692;23.342;2023-05-10T00:39:21;6.60;;;6.00;;
52956;SDS011;38819;42.692;23.342;2023-05-10T00:41:46;7.13;;;6.18;;
52956;SDS011;38819;42.692;23.342;2023-05-10T00:44:12;7.97;;;6.53;;
52956;SDS011;38819;42.692;23.342;2023-05-10T00:46:37;7.03;;;6.40;;
52956;SDS011;38819;42.692;23.342;2023-05-10T00:49:03;8.13;;;6.78;;
52956;SDS011;38819;42.692;23.342;2023-05-10T00:51:29;7.65;;;6.82;;
52956;SDS011;38819;42.692;23.342;2023-05-10T00:53:56;7.10;;;6.50;;
52956;SDS011;38819;42.692;23.342;2023-05-10T00:56:21;7.45;;;6.82;;
52956;SDS011;38819;42.692;23.342;2023-05-10T00:58:48;7.97;;;7.18;;
52956;SDS011;38819;42.692;23.342;2023-05-10T01:01:14;10.13;;;8.35;;
52956;SDS011;38819;42.692;23.342;2023-05-10T01:03:39;13.93;;;9.45;;
52956;SDS011;38819;42.692;23.342;2023-05-10T01:06:05;9.68;;;7.80;;
52956;SDS011;38819;42.692;23.342;2023-05-10T01:08:31;8.32;;;7.60;;
52956;SDS011;38819;42.692;23.342;2023-05-10T01:10:57;9.48;;;7.30;;
52956;SDS011;38819;42.692;23.342;2023-05-10T01:13:29;8.02;;;7.07;;
52956;SDS011;38819;42.692;23.342;2023-05-10T01:15:55;9.00;;;7.93;;
52956;SDS011;38819;42.692;23.342;2023-05-10T01:18:21;7.45;;;6.57;;
52956;SDS011;38819;42.692;23.342;2023-05-10T01:20:48;7.13;;;6.53;;
52956;SDS011;38819;42.692;23.342;2023-05-10T01:29:14;6.40;;;5.80;;
52956;SDS011;38819;42.692;23.342;2023-05-10T01:34:54;5.75;;;5.25;;
52956;SDS011;38819;42.692;23.342;2023-05-10T01:42:55;6.40;;;5.80;;
52956;SDS011;38819;42.692;23.342;2023-05-10T01:45:30;6.28;;;5.15;;
52956;SDS011;38819;42.692;23.342;2023-05-10T01:48:03;6.07;;;5.45;;
52956;SDS011;38819;42.692;23.342;2023-05-10T01:50:32;11.55;;;6.25;;
52956;SDS011;38819;42.692;23.342;2023-05-10T01:53:00;6.35;;;5.70;;
52956;SDS011;38819;42.692;23.342;2023-05-10T01:55:32;6.43;;;5.63;;
52956;SDS011;38819;42.692;23.342;2023-05-10T01:58:02;6.18;;;5.72;;
52956;SDS011;38819;42.692;23.342;2023-05-10T02:00:30;5.78;;;5.15;;
52956;SDS011;38819;42.692;23.342;2023-05-10T02:02:57;5.70;;;5.30;;
52956;SDS011;38819;42.692;23.342;2023-05-10T02:07:52;5.25;;;4.85;;
52956;SDS011;38819;42.692;23.342;2023-05-10T02:10:18;5.32;;;4.82;;
52956;SDS011;38819;42.692;23.342;2023-05-10T02:12:46;4.57;;;4.18;;
52956;SDS011;38819;42.692;23.342;2023-05-10T02:15:15;5.70;;;5.20;;
52956;SDS011;38819;42.692;23.342;2023-05-10T02:17:46;5.55;;;5.05;;
52956;SDS011;38819;42.692;23.342;2023-05-10T02:20:12;7.07;;;4.80;;
52956;SDS011;38819;42.692;23.342;2023-05-10T02:22:40;5.50;;;5.00;;
52956;SDS011;38819;42.692;23.342;2023-05-10T02:25:08;5.68;;;5.18;;
52956;SDS011;38819;42.692;23.342;2023-05-10T02:27:36;5.78;;;5.28;;
52956;SDS011;38819;42.692;23.342;2023-05-10T02:30:02;5.18;;;4.80;;
52956;SDS011;38819;42.692;23.342;2023-05-10T02:32:30;5.40;;;4.90;;
52956;SDS011;38819;42.692;23.342;2023-05-10T02:34:56;6.38;;;5.22;;
52956;SDS011;38819;42.692;23.342;2023-05-10T02:37:22;6.50;;;5.17;;
52956;SDS011;38819;42.692;23.342;2023-05-10T02:42:18;5.05;;;4.60;;
52956;SDS011;38819;42.692;23.342;2023-05-10T02:47:13;5.97;;;4.43;;
52956;SDS011;38819;42.692;23.342;2023-05-10T02:49:39;5.53;;;5.03;;
52956;SDS011;38819;42.692;23.342;2023-05-10T02:52:05;6.57;;;4.82;;
52956;SDS011;38819;42.692;23.342;2023-05-10T02:54:37;7.30;;;5.43;;
52956;SDS011;38819;42.692;23.342;2023-05-10T02:57:06;5.60;;;4.45;;
52956;SDS011;38819;42.692;23.342;2023-05-10T02:59:35;11.10;;;4.95;;
52956;SDS011;38819;42.692;23.342;2023-05-10T03:02:01;7.90;;;4.90;;
52956;SDS011;38819;42.692;23.342;2023-05-10T03:04:31;6.15;;;5.35;;
52956;SDS011;38819;42.692;23.342;2023-05-10T03:06:57;5.55;;;4.97;;
52956;SDS011;38819;42.692;23.342;2023-05-10T03:09:22;11.23;;;7.10;;
52956;SDS011;38819;42.692;23.342;2023-05-10T03:14:45;6.40;;;5.13;;
52956;SDS011;38819;42.692;23.342;2023-05-10T03:20:32;6.22;;;4.80;;
52956;SDS011;38819;42.692;23.342;2023-05-10T03:23:04;6.18;;;5.32;;
52956;SDS011;38819;42.692;23.342;2023-05-10T03:25:36;6.38;;;4.75;;
52956;SDS011;38819;42.692;23.342;2023-05-10T03:28:02;6.63;;;4.53;;
52956;SDS011;38819;42.692;23.342;2023-05-10T03:30:29;7.22;;;5.25;;
52956;SDS011;38819;42.692;23.342;2023-05-10T03:32:56;5.47;;;3.40;;
52956;SDS011;38819;42.692;23.342;2023-05-10T03:35:22;7.10;;;4.80;;
52956;SDS011;38819;42.692;23.342;2023-05-10T03:37:48;5.32;;;4.85;;
52956;SDS011;38819;42.692;23.342;2023-05-10T03:40:14;5.57;;;4.50;;
52956;SDS011;38819;42.692;23.342;2023-05-10T03:42:39;6.15;;;4.82;;
52956;SDS011;38819;42.692;23.342;2023-05-10T03:45:08;6.57;;;5.30;;
52956;SDS011;38819;42.692;23.342;2023-05-10T03:47:34;5.03;;;4.63;;
52956;SDS011;38819;42.692;23.342;2023-05-10T03:50:00;5.55;;;4.78;;
52956;SDS011;38819;42.692;23.342;2023-05-10T03:52:25;6.03;;;4.68;;
52956;SDS011;38819;42.692;23.342;2023-05-10T03:54:51;12.40;;;5.03;;
52956;SDS011;38819;42.692;23.342;2023-05-10T03:57:16;5.20;;;4.70;;
52956;SDS011;38819;42.692;23.342;2023-05-10T03:59:41;6.90;;;4.88;;
52956;SDS011;38819;42.692;23.342;2023-05-10T04:02:07;7.93;;;5.30;;
52956;SDS011;38819;42.692;23.342;2023-05-10T04:04:32;5.93;;;4.95;;
52956;SDS011;38819;42.692;23.342;2023-05-10T04:06:57;5.57;;;4.60;;
52956;SDS011;38819;42.692;23.342;2023-05-10T04:09:23;5.45;;;5.00;;
52956;SDS011;38819;42.692;23.342;2023-05-10T04:11:48;7.97;;;5.88;;
52956;SDS011;38819;42.692;23.342;2023-05-10T04:14:14;6.43;;;5.22;;
52956;SDS011;38819;42.692;23.342;2023-05-10T04:16:39;10.25;;;6.25;;
52956;SDS011;38819;42.692;23.342;2023-05-10T04:19:05;8.10;;;5.82;;
52956;SDS011;38819;42.692;23.342;2023-05-10T04:21:30;8.00;;;5.35;;
52956;SDS011;38819;42.692;23.342;2023-05-10T04:23:56;11.23;;;5.55;;
52956;SDS011;38819;42.692;23.342;2023-05-10T04:26:21;8.68;;;5.30;;
52956;SDS011;38819;42.692;23.342;2023-05-10T04:28:47;8.38;;;4.88;;
52956;SDS011;38819;42.692;23.342;2023-05-10T04:31:12;5.88;;;5.00;;
52956;SDS011;38819;42.692;23.342;2023-05-10T04:33:37;6.32;;;5.25;;
52956;SDS011;38819;42.692;23.342;2023-05-10T04:36:03;10.15;;;4.82;;
52956;SDS011;38819;42.692;23.342;2023-05-10T04:38:29;6.60;;;5.38;;
52956;SDS011;38819;42.692;23.342;2023-05-10T04:40:55;5.45;;;4.82;;
52956;SDS011;38819;42.692;23.342;2023-05-10T04:43:29;6.05;;;5.25;;
52956;SDS011;38819;42.692;23.342;2023-05-10T04:45:56;13.07;;;4.93;;
52956;SDS011;38819;42.692;23.342;2023-05-10T04:48:21;8.15;;;5.93;;
52956;SDS011;38819;42.692;23.342;2023-05-10T04:50:47;5.60;;;5.10;;
52956;SDS011;38819;42.692;23.342;2023-05-10T04:53:12;5.53;;;4.78;;
52956;SDS011;38819;42.692;23.342;2023-05-10T04:55:37;7.35;;;5.60;;
52956;SDS011;38819;42.692;23.342;2023-05-10T04:58:03;7.38;;;5.50;;
52956;SDS011;38819;42.692;23.342;2023-05-10T05:00:28;5.55;;;4.78;;
52956;SDS011;38819;42.692;23.342;2023-05-10T05:02:54;13.40;;;5.53;;
52956;SDS011;38819;42.692;23.342;2023-05-10T05:05:19;6.35;;;5.15;;
52956;SDS011;38819;42.692;23.342;2023-05-10T05:07:45;12.52;;;5.63;;
52956;SDS011;38819;42.692;23.342;2023-05-10T05:10:10;7.15;;;5.45;;
52956;SDS011;38819;42.692;23.342;2023-05-10T05:12:36;7.43;;;5.55;;
52956;SDS011;38819;42.692;23.342;2023-05-10T05:15:01;6.55;;;5.28;;
52956;SDS011;38819;42.692;23.342;2023-05-10T05:17:27;6.32;;;5.72;;
52956;SDS011;38819;42.692;23.342;2023-05-10T05:19:55;7.35;;;6.13;;
52956;SDS011;38819;42.692;23.342;2023-05-10T05:22:20;6.05;;;4.97;;
52956;SDS011;38819;42.692;23.342;2023-05-10T05:24:52;6.35;;;5.68;;
52956;SDS011;38819;42.692;23.342;2023-05-10T05:27:18;6.40;;;5.75;;
52956;SDS011;38819;42.692;23.342;2023-05-10T05:29:45;8.30;;;6.30;;
52956;SDS011;38819;42.692;23.342;2023-05-10T05:32:11;8.25;;;6.70;;
52956;SDS011;38819;42.692;23.342;2023-05-10T05:34:36;7.38;;;6.43;;
52956;SDS011;38819;42.692;23.342;2023-05-10T05:37:02;7.03;;;6.32;;
52956;SDS011;38819;42.692;23.342;2023-05-10T05:39:27;9.63;;;6.10;;
52956;SDS011;38819;42.692;23.342;2023-05-10T05:41:52;9.27;;;6.75;;
52956;SDS011;38819;42.692;23.342;2023-05-10T05:44:18;7.50;;;6.68;;
52956;SDS011;38819;42.692;23.342;2023-05-10T05:46:43;9.20;;;7.18;;
52956;SDS011;38819;42.692;23.342;2023-05-10T05:49:09;10.77;;;7.93;;
52956;SDS011;38819;42.692;23.342;2023-05-10T05:51:34;9.52;;;7.15;;
52956;SDS011;38819;42.692;23.342;2023-05-10T05:54:00;10.00;;;7.20;;
52956;SDS011;38819;42.692;23.342;2023-05-10T05:56:26;9.25;;;7.00;;
52956;SDS011;38819;42.692;23.342;2023-05-10T05:58:52;9.23;;;6.70;;
52956;SDS011;38819;42.692;23.342;2023-05-10T06:01:17;12.10;;;7.38;;
52956;SDS011;38819;42.692;23.342;2023-05-10T06:03:43;11.70;;;6.63;;
52956;SDS011;38819;42.692;23.342;2023-05-10T06:06:08;10.68;;;7.43;;
52956;SDS011;38819;42.692;23.342;2023-05-10T06:08:33;33.95;;;9.85;;
52956;SDS011;38819;42.692;23.342;2023-05-10T06:10:59;50.55;;;11.98;;
52956;SDS011;38819;42.692;23.342;2023-05-10T06:13:25;26.27;;;9.52;;
52956;SDS011;38819;42.692;23.342;2023-05-10T06:15:56;8.85;;;7.18;;
52956;SDS011;38819;42.692;23.342;2023-05-10T06:18:23;9.02;;;6.90;;
52956;SDS011;38819;42.692;23.342;2023-05-10T06:20:49;10.30;;;6.78;;
52956;SDS011;38819;42.692;23.342;2023-05-10T06:23:14;11.27;;;7.10;;
52956;SDS011;38819;42.692;23.342;2023-05-10T06:25:40;12.65;;;7.40;;
52956;SDS011;38819;42.692;23.342;2023-05-10T06:28:05;8.55;;;6.50;;
52956;SDS011;38819;42.692;23.342;2023-05-10T06:30:31;9.15;;;6.65;;
52956;SDS011;38819;42.692;23.342;2023-05-10T06:32:56;6.53;;;5.78;;
52956;SDS011;38819;42.692;23.342;2023-05-10T06:35:22;15.65;;;7.20;;
52956;SDS011;38819;42.692;23.342;2023-05-10T06:37:48;10.50;;;5.85;;
52956;SDS011;38819;42.692;23.342;2023-05-10T06:40:13;8.70;;;6.78;;
52956;SDS011;38819;42.692;23.342;2023-05-10T06:42:39;14.50;;;7.00;;
52956;SDS011;38819;42.692;23.342;2023-05-10T06:45:04;9.75;;;5.80;;
52956;SDS011;38819;42.692;23.342;2023-05-10T06:47:30;6.93;;;6.07;;
52956;SDS011;38819;42.692;23.342;2023-05-10T06:49:56;8.43;;;6.25;;
52956;SDS011;38819;42.692;23.342;2023-05-10T06:52:22;9.43;;;6.05;;
52956;SDS011;38819;42.692;23.342;2023-05-10T06:54:48;7.50;;;5.70;;
52956;SDS011;38819;42.692;23.342;2023-05-10T06:57:13;14.48;;;7.28;;
52956;SDS011;38819;42.692;23.342;2023-05-10T06:59:39;10.85;;;7.18;;
52956;SDS011;38819;42.692;23.342;2023-05-10T07:02:04;7.30;;;5.70;;
52956;SDS011;38819;42.692;23.342;2023-05-10T07:04:30;12.02;;;5.75;;
52956;SDS011;38819;42.692;23.342;2023-05-10T07:06:56;11.65;;;6.75;;
52956;SDS011;38819;42.692;23.342;2023-05-10T07:09:22;7.55;;;5.70;;
52956;SDS011;38819;42.692;23.342;2023-05-10T07:11:49;8.47;;;6.37;;
52956;SDS011;38819;42.692;23.342;2023-05-10T07:14:14;9.13;;;6.15;;
52956;SDS011;38819;42.692;23.342;2023-05-10T07:16:40;8.30;;;6.90;;
52956;SDS011;38819;42.692;23.342;2023-05-10T07:19:05;10.15;;;6.05;;
52956;SDS011;38819;42.692;23.342;2023-05-10T07:21:31;8.05;;;6.50;;
52956;SDS011;38819;42.692;23.342;2023-05-10T07:23:57;12.18;;;5.43;;
52956;SDS011;38819;42.692;23.342;2023-05-10T07:26:22;7.28;;;5.75;;
52956;SDS011;38819;42.692;23.342;2023-05-10T07:28:49;8.48;;;5.90;;
52956;SDS011;38819;42.692;23.342;2023-05-10T07:31:14;9.50;;;5.88;;
52956;SDS011;38819;42.692;23.342;2023-05-10T07:33:40;11.32;;;6.30;;
52956;SDS011;38819;42.692;23.342;2023-05-10T07:36:05;14.90;;;6.40;;
52956;SDS011;38819;42.692;23.342;2023-05-10T07:38:31;9.15;;;5.90;;
52956;SDS011;38819;42.692;23.342;2023-05-10T07:40:56;9.18;;;6.82;;
52956;SDS011;38819;42.692;23.342;2023-05-10T07:43:22;16.05;;;7.50;;
52956;SDS011;38819;42.692;23.342;2023-05-10T07:45:48;16.92;;;8.82;;
52956;SDS011;38819;42.692;23.342;2023-05-10T07:48:14;14.90;;;8.32;;
52956;SDS011;38819;42.692;23.342;2023-05-10T07:50:40;16.88;;;8.80;;
52956;SDS011;38819;42.692;23.342;2023-05-10T07:53:05;23.33;;;7.95;;
52956;SDS011;38819;42.692;23.342;2023-05-10T07:55:30;20.98;;;8.20;;
52956;SDS011;38819;42.692;23.342;2023-05-10T07:57:56;15.13;;;8.13;;
52956;SDS011;38819;42.692;23.342;2023-05-10T08:00:21;12.10;;;8.32;;
52956;SDS011;38819;42.692;23.342;2023-05-10T08:02:47;22.00;;;8.90;;
52956;SDS011;38819;42.692;23.342;2023-05-10T08:05:12;29.30;;;9.30;;
52956;SDS011;38819;42.692;23.342;2023-05-10T08:07:38;22.52;;;9.65;;
52956;SDS011;38819;42.692;23.342;2023-05-10T08:10:04;19.02;;;8.70;;
52956;SDS011;38819;42.692;23.342;2023-05-10T08:12:30;11.60;;;8.57;;
52956;SDS011;38819;42.692;23.342;2023-05-10T08:14:55;16.83;;;8.95;;
52956;SDS011;38819;42.692;23.342;2023-05-10T08:17:21;11.82;;;8.65;;
52956;SDS011;38819;42.692;23.342;2023-05-10T08:19:46;10.50;;;8.35;;
52956;SDS011;38819;42.692;23.342;2023-05-10T08:22:12;22.45;;;8.48;;
52956;SDS011;38819;42.692;23.342;2023-05-10T08:24:37;14.15;;;8.07;;
52956;SDS011;38819;42.692;23.342;2023-05-10T08:27:07;12.10;;;7.68;;
52956;SDS011;38819;42.692;23.342;2023-05-10T08:29:33;18.05;;;7.60;;
52956;SDS011;38819;42.692;23.342;2023-05-10T08:31:59;8.18;;;7.38;;
52956;SDS011;38819;42.692;23.342;2023-05-10T08:34:25;18.73;;;7.47;;
52956;SDS011;38819;42.692;23.342;2023-05-10T08:36:51;13.07;;;7.18;;
52956;SDS011;38819;42.692;23.342;2023-05-10T08:39:17;8.88;;;8.07;;
52956;SDS011;38819;42.692;23.342;2023-05-10T08:41:42;10.35;;;8.18;;
52956;SDS011;38819;42.692;23.342;2023-05-10T08:46:35;9.80;;;8.00;;
52956;SDS011;38819;42.692;23.342;2023-05-10T08:49:04;12.40;;;7.35;;
52956;SDS011;38819;42.692;23.342;2023-05-10T08:51:35;11.82;;;7.93;;
52956;SDS011;38819;42.692;23.342;2023-05-10T08:54:05;8.05;;;7.18;;
52956;SDS011;38819;42.692;23.342;2023-05-10T08:56:31;9.00;;;8.13;;
52956;SDS011;38819;42.692;23.342;2023-05-10T08:58:56;13.02;;;8.88;;
52956;SDS011;38819;42.692;23.342;2023-05-10T09:01:25;8.95;;;8.05;;
52956;SDS011;38819;42.692;23.342;2023-05-10T09:03:53;8.82;;;7.88;;
52956;SDS011;38819;42.692;23.342;2023-05-10T09:06:19;12.45;;;8.43;;
52956;SDS011;38819;42.692;23.342;2023-05-10T09:08:45;8.95;;;8.05;;
52956;SDS011;38819;42.692;23.342;2023-05-10T09:11:11;14.10;;;8.25;;
52956;SDS011;38819;42.692;23.342;2023-05-10T09:13:37;11.63;;;9.33;;
52956;SDS011;38819;42.692;23.342;2023-05-10T09:16:03;9.43;;;7.78;;
52956;SDS011;38819;42.692;23.342;2023-05-10T09:18:30;10.35;;;9.13;;
52956;SDS011;38819;42.692;23.342;2023-05-10T09:20:55;9.70;;;8.73;;
52956;SDS011;38819;42.692;23.342;2023-05-10T09:23:21;10.43;;;8.80;;
52956;SDS011;38819;42.692;23.342;2023-05-10T09:25:46;11.82;;;9.27;;
52956;SDS011;38819;42.692;23.342;2023-05-10T09:28:12;13.82;;;9.60;;
52956;SDS011;38819;42.692;23.342;2023-05-10T09:30:37;11.60;;;8.07;;
52956;SDS011;38819;42.692;23.342;2023-05-10T09:33:03;19.27;;;9.10;;
52956;SDS011;38819;42.692;23.342;2023-05-10T09:35:29;14.95;;;9.65;;
52956;SDS011;38819;42.692;23.342;2023-05-10T09:37:57;12.45;;;9.30;;
52956;SDS011;38819;42.692;23.342;2023-05-10T09:40:26;20.85;;;8.95;;
52956;SDS011;38819;42.692;23.342;2023-05-10T09:45:47;18.15;;;8.75;;
52956;SDS011;38819;42.692;23.342;2023-05-10T09:48:14;17.50;;;9.68;;
52956;SDS011;38819;42.692;23.342;2023-05-10T09:50:40;13.15;;;7.18;;
52956;SDS011;38819;42.692;23.342;2023-05-10T09:53:06;16.05;;;7.75;;
52956;SDS011;38819;42.692;23.342;2023-05-10T09:55:41;14.40;;;7.70;;
52956;SDS011;38819;42.692;23.342;2023-05-10T09:58:11;11.68;;;6.53;;
52956;SDS011;38819;42.692;23.342;2023-05-10T10:00:42;17.27;;;7.57;;
52956;SDS011;38819;42.692;23.342;2023-05-10T10:03:16;19.25;;;8.30;;
52956;SDS011;38819;42.692;23.342;2023-05-10T10:05:43;10.88;;;7.25;;
52956;SDS011;38819;42.692;23.342;2023-05-10T10:08:10;15.32;;;7.68;;
52956;SDS011;38819;42.692;23.342;2023-05-10T10:10:37;15.00;;;8.07;;
52956;SDS011;38819;42.692;23.342;2023-05-10T10:13:03;23.03;;;8.13;;
52956;SDS011;38819;42.692;23.342;2023-05-10T10:15:29;13.23;;;6.97;;
52956;SDS011;38819;42.692;23.342;2023-05-10T10:17:55;15.98;;;7.60;;
52956;SDS011;38819;42.692;23.342;2023-05-10T10:20:21;18.67;;;6.95;;
52956;SDS011;38819;42.692;23.342;2023-05-10T10:22:48;20.23;;;7.35;;
52956;SDS011;38819;42.692;23.342;2023-05-10T10:25:15;11.90;;;6.55;;
52956;SDS011;38819;42.692;23.342;2023-05-10T10:30:30;11.25;;;5.93;;
52956;SDS011;38819;42.692;23.342;2023-05-10T10:35:33;8.52;;;6.15;;
52956;SDS011;38819;42.692;23.342;2023-05-10T10:38:00;20.13;;;7.90;;
52956;SDS011;38819;42.692;23.342;2023-05-10T10:40:32;8.18;;;6.30;;
52956;SDS011;38819;42.692;23.342;2023-05-10T10:43:21;8.98;;;6.80;;
52956;SDS011;38819;42.692;23.342;2023-05-10T10:46:15;8.25;;;5.78;;
52956;SDS011;38819;42.692;23.342;2023-05-10T10:49:08;8.05;;;5.90;;
52956;SDS011;38819;42.692;23.342;2023-05-10T10:51:37;10.88;;;6.53;;
52956;SDS011;38819;42.692;23.342;2023-05-10T10:54:10;12.35;;;6.68;;
52956;SDS011;38819;42.692;23.342;2023-05-10T10:56:35;7.18;;;5.93;;
52956;SDS011;38819;42.692;23.342;2023-05-10T10:59:01;20.55;;;7.32;;
52956;SDS011;38819;42.692;23.342;2023-05-10T11:01:26;16.85;;;6.45;;
52956;SDS011;38819;42.692;23.342;2023-05-10T11:06:33;12.98;;;6.00;;
52956;SDS011;38819;42.692;23.342;2023-05-10T11:09:12;12.38;;;6.75;;
52956;SDS011;38819;42.692;23.342;2023-05-10T11:11:53;11.10;;;6.32;;
52956;SDS011;38819;42.692;23.342;2023-05-10T11:14:23;15.35;;;6.20;;
52956;SDS011;38819;42.692;23.342;2023-05-10T11:16:49;17.20;;;7.15;;
52956;SDS011;38819;42.692;23.342;2023-05-10T11:19:15;13.90;;;6.68;;
52956;SDS011;38819;42.692;23.342;2023-05-10T11:21:48;8.83;;;5.53;;
52956;SDS011;38819;42.692;23.342;2023-05-10T11:24:16;14.82;;;6.55;;
52956;SDS011;38819;42.692;23.342;2023-05-10T11:26:43;8.27;;;6.40;;
52956;SDS011;38819;42.692;23.342;2023-05-10T11:29:08;6.38;;;5.65;;
52956;SDS011;38819;42.692;23.342;2023-05-10T11:31:34;11.45;;;5.97;;
52956;SDS011;38819;42.692;23.342;2023-05-10T11:34:00;8.43;;;6.15;;
52956;SDS011;38819;42.692;23.342;2023-05-10T11:36:27;7.85;;;5.95;;
52956;SDS011;38819;42.692;23.342;2023-05-10T11:38:54;11.50;;;6.85;;
52956;SDS011;38819;42.692;23.342;2023-05-10T11:41:21;9.00;;;5.70;;
52956;SDS011;38819;42.692;23.342;2023-05-10T11:43:53;7.57;;;5.35;;
52956;SDS011;38819;42.692;23.342;2023-05-10T11:46:20;10.75;;;6.10;;
52956;SDS011;38819;42.692;23.342;2023-05-10T11:48:52;9.88;;;6.10;;
52956;SDS011;38819;42.692;23.342;2023-05-10T11:51:19;10.38;;;5.78;;
52956;SDS011;38819;42.692;23.342;2023-05-10T11:53:46;7.50;;;4.07;;
52956;SDS011;38819;42.692;23.342;2023-05-10T11:56:11;13.30;;;6.32;;
52956;SDS011;38819;42.692;23.342;2023-05-10T11:58:37;11.95;;;5.53;;
52956;SDS011;38819;42.692;23.342;2023-05-10T12:01:04;11.07;;;5.55;;
52956;SDS011;38819;42.692;23.342;2023-05-10T12:03:31;8.70;;;5.82;;
52956;SDS011;38819;42.692;23.342;2023-05-10T12:05:57;9.75;;;6.38;;
52956;SDS011;38819;42.692;23.342;2023-05-10T12:08:25;8.25;;;6.20;;
52956;SDS011;38819;42.692;23.342;2023-05-10T12:10:51;13.60;;;5.38;;
52956;SDS011;38819;42.692;23.342;2023-05-10T12:13:28;15.05;;;7.18;;
52956;SDS011;38819;42.692;23.342;2023-05-10T12:15:53;10.25;;;6.30;;
52956;SDS011;38819;42.692;23.342;2023-05-10T12:18:23;11.18;;;6.68;;
52956;SDS011;38819;42.692;23.342;2023-05-10T12:20:51;14.10;;;6.93;;
52956;SDS011;38819;42.692;23.342;2023-05-10T12:23:18;14.77;;;6.68;;
52956;SDS011;38819;42.692;23.342;2023-05-10T12:25:45;12.23;;;6.90;;
52956;SDS011;38819;42.692;23.342;2023-05-10T12:28:11;10.88;;;6.70;;
52956;SDS011;38819;42.692;23.342;2023-05-10T12:30:37;10.65;;;6.60;;
52956;SDS011;38819;42.692;23.342;2023-05-10T12:35:46;17.90;;;7.13;;
52956;SDS011;38819;42.692;23.342;2023-05-10T12:38:29;11.85;;;6.95;;
52956;SDS011;38819;42.692;23.342;2023-05-10T12:41:02;11.05;;;6.75;;
52956;SDS011;38819;42.692;23.342;2023-05-10T12:43:28;17.42;;;6.72;;
52956;SDS011;38819;42.692;23.342;2023-05-10T12:45:54;11.45;;;7.05;;
52956;SDS011;38819;42.692;23.342;2023-05-10T12:48:20;10.48;;;7.03;;
52956;SDS011;38819;42.692;23.342;2023-05-10T12:50:46;9.80;;;7.18;;
52956;SDS011;38819;42.692;23.342;2023-05-10T12:53:15;15.00;;;7.15;;
52956;SDS011;38819;42.692;23.342;2023-05-10T12:55:41;8.70;;;6.57;;
52956;SDS011;38819;42.692;23.342;2023-05-10T12:58:07;7.15;;;6.25;;
52956;SDS011;38819;42.692;23.342;2023-05-10T13:00:33;10.98;;;6.90;;
52956;SDS011;38819;42.692;23.342;2023-05-10T13:02:58;8.57;;;6.53;;
52956;SDS011;38819;42.692;23.342;2023-05-10T13:05:24;8.20;;;6.22;;
52956;SDS011;38819;42.692;23.342;2023-05-10T13:07:49;10.02;;;6.43;;
52956;SDS011;38819;42.692;23.342;2023-05-10T13:10:15;9.15;;;6.80;;
52956;SDS011;38819;42.692;23.342;2023-05-10T13:12:41;12.13;;;6.95;;
52956;SDS011;38819;42.692;23.342;2023-05-10T13:15:07;7.30;;;6.10;;
52956;SDS011;38819;42.692;23.342;2023-05-10T13:17:32;7.28;;;6.05;;
52956;SDS011;38819;42.692;23.342;2023-05-10T13:19:58;14.80;;;6.82;;
52956;SDS011;38819;42.692;23.342;2023-05-10T13:22:23;13.48;;;6.15;;
52956;SDS011;38819;42.692;23.342;2023-05-10T13:24:49;9.25;;;6.78;;
52956;SDS011;38819;42.692;23.342;2023-05-10T13:27:14;11.30;;;6.93;;
52956;SDS011;38819;42.692;23.342;2023-05-10T13:29:40;11.35;;;6.80;;
52956;SDS011;38819;42.692;23.342;2023-05-10T13:32:05;11.15;;;5.75;;
52956;SDS011;38819;42.692;23.342;2023-05-10T13:34:31;7.88;;;6.13;;
52956;SDS011;38819;42.692;23.342;2023-05-10T13:36:56;14.05;;;6.28;;
52956;SDS011;38819;42.692;23.342;2023-05-10T13:39:22;6.63;;;5.97;;
52956;SDS011;38819;42.692;23.342;2023-05-10T13:41:47;10.13;;;7.07;;
52956;SDS011;38819;42.692;23.342;2023-05-10T13:44:13;8.32;;;5.68;;
52956;SDS011;38819;42.692;23.342;2023-05-10T13:46:40;6.97;;;6.28;;
52956;SDS011;38819;42.692;23.342;2023-05-10T13:49:06;12.20;;;6.07;;
52956;SDS011;38819;42.692;23.342;2023-05-10T13:51:33;10.45;;;6.00;;
52956;SDS011;38819;42.692;23.342;2023-05-10T13:53:59;8.65;;;5.47;;
52956;SDS011;38819;42.692;23.342;2023-05-10T13:56:24;8.52;;;5.90;;
52956;SDS011;38819;42.692;23.342;2023-05-10T13:58:49;9.48;;;6.43;;
52956;SDS011;38819;42.692;23.342;2023-05-10T14:01:15;7.28;;;6.55;;
52956;SDS011;38819;42.692;23.342;2023-05-10T14:03:40;7.13;;;5.82;;
52956;SDS011;38819;42.692;23.342;2023-05-10T14:06:06;13.65;;;6.40;;
52956;SDS011;38819;42.692;23.342;2023-05-10T14:08:32;9.13;;;6.07;;
52956;SDS011;38819;42.692;23.342;2023-05-10T14:10:58;14.02;;;6.32;;
52956;SDS011;38819;42.692;23.342;2023-05-10T14:13:23;7.55;;;6.13;;
52956;SDS011;38819;42.692;23.342;2023-05-10T14:15:50;7.97;;;5.30;;
52956;SDS011;38819;42.692;23.342;2023-05-10T14:18:15;12.10;;;6.05;;
52956;SDS011;38819;42.692;23.342;2023-05-10T14:20:41;6.35;;;5.72;;
52956;SDS011;38819;42.692;23.342;2023-05-10T14:23:06;6.22;;;5.40;;
52956;SDS011;38819;42.692;23.342;2023-05-10T14:25:32;9.73;;;5.95;;
52956;SDS011;38819;42.692;23.342;2023-05-10T14:28:01;11.00;;;7.07;;
52956;SDS011;38819;42.692;23.342;2023-05-10T14:30:26;11.48;;;5.72;;
52956;SDS011;38819;42.692;23.342;2023-05-10T14:32:51;14.65;;;6.47;;
52956;SDS011;38819;42.692;23.342;2023-05-10T14:35:19;11.85;;;6.72;;
52956;SDS011;38819;42.692;23.342;2023-05-10T14:37:44;7.40;;;6.28;;
52956;SDS011;38819;42.692;23.342;2023-05-10T14:40:10;11.40;;;6.47;;
52956;SDS011;38819;42.692;23.342;2023-05-10T14:42:35;7.18;;;5.47;;
52956;SDS011;38819;42.692;23.342;2023-05-10T14:45:01;7.93;;;6.35;;
52956;SDS011;38819;42.692;23.342;2023-05-10T14:47:27;7.10;;;6.40;;
52956;SDS011;38819;42.692;23.342;2023-05-10T14:49:52;12.90;;;6.72;;
52956;SDS011;38819;42.692;23.342;2023-05-10T14:52:17;7.28;;;6.38;;
52956;SDS011;38819;42.692;23.342;2023-05-10T14:54:43;6.97;;;5.88;;
52956;SDS011;38819;42.692;23.342;2023-05-10T14:57:08;12.48;;;6.63;;
52956;SDS011;38819;42.692;23.342;2023-05-10T14:59:34;15.80;;;6.78;;
52956;SDS011;38819;42.692;23.342;2023-05-10T15:01:59;12.70;;;6.72;;
52956;SDS011;38819;42.692;23.342;2023-05-10T15:04:25;15.18;;;6.90;;
52956;SDS011;38819;42.692;23.342;2023-05-10T15:06:50;11.18;;;6.53;;
52956;SDS011;38819;42.692;23.342;2023-05-10T15:09:15;13.48;;;6.78;;